createdAt,value
2023-03-06T00:04:50.482Z,5.47
2023-03-06T00:09:52.554Z,5.47
2023-03-06T00:14:54.500Z,5.40
2023-03-06T00:19:56.588Z,5.42
2023-03-06T00:24:59.542Z,5.41
2023-03-06T00:30:02.302Z,5.37
2023-03-06T00:35:04.614Z,5.38
2023-03-06T00:40:09.475Z,5.17
2023-03-06T00:45:12.589Z,5.39
2023-03-06T00:50:14.714Z,5.42
2023-03-06T00:55:17.149Z,5.36
2023-03-06T01:00:19.528Z,5.30
2023-03-06T01:05:26.773Z,5.39
2023-03-06T01:10:31.732Z,5.43
2023-03-06T01:15:35.654Z,5.43
2023-03-06T01:20:38.536Z,5.44
2023-03-06T01:25:40.805Z,5.44
2023-03-06T01:30:46.137Z,5.38
2023-03-06T01:35:48.288Z,5.36
2023-03-06T01:40:50.468Z,5.37
2023-03-06T01:45:53.093Z,5.38
2023-03-06T01:50:55.183Z,5.32
2023-03-06T01:55:57.585Z,5.28
2023-03-06T02:00:59.860Z,5.29
2023-03-06T02:06:02.258Z,5.29
2023-03-06T02:11:08.623Z,5.32
2023-03-06T02:16:12.303Z,5.36
2023-03-06T02:21:33.828Z,5.31
2023-03-06T02:26:37.554Z,5.31
2023-03-06T02:31:39.986Z,5.28
2023-03-06T02:36:55.193Z,5.24
2023-03-06T02:41:58.058Z,5.25
2023-03-06T02:47:02.381Z,5.22
2023-03-06T02:52:04.785Z,5.19
2023-03-06T02:57:07.678Z,5.18
2023-03-06T03:02:10.615Z,5.10
2023-03-06T03:07:13.078Z,5.14
2023-03-06T03:12:15.926Z,5.15
2023-03-06T03:17:19.131Z,5.17
2023-03-06T03:22:22.214Z,5.21
2023-03-06T03:27:25.352Z,5.22
2023-03-06T03:32:27.902Z,5.23
2023-03-06T03:37:30.730Z,5.18
2023-03-06T03:42:36.696Z,5.11
2023-03-06T03:47:40.763Z,5.17
2023-03-06T03:52:43.338Z,5.23
2023-03-06T03:57:47.280Z,5.28
2023-03-06T04:02:49.837Z,5.28
2023-03-06T04:08:05.751Z,5.28
2023-03-06T04:13:10.214Z,5.31
2023-03-06T04:18:17.166Z,5.32
2023-03-06T04:23:21.769Z,5.18
2023-03-06T04:28:24.412Z,5.27
2023-03-06T04:33:27.058Z,5.30
2023-03-06T04:38:30.408Z,5.24
2023-03-06T04:43:32.576Z,5.25
2023-03-06T04:48:36.610Z,5.30
2023-03-06T04:53:38.964Z,5.30
2023-03-06T04:58:41.526Z,5.30
2023-03-06T05:03:43.930Z,5.31
2023-03-06T05:08:46.334Z,5.30
2023-03-06T05:13:48.697Z,5.23
2023-03-06T05:18:50.998Z,5.30
2023-03-06T05:23:53.959Z,5.27
2023-03-06T05:28:55.914Z,5.28
2023-03-06T05:33:58.894Z,5.33
2023-03-06T05:39:01.236Z,5.30
2023-03-06T05:44:06.071Z,5.25
2023-03-06T05:49:08.926Z,5.36
2023-03-06T05:54:11.331Z,5.39
2023-03-06T05:59:13.549Z,5.42
2023-03-06T06:04:16.063Z,5.46
2023-03-06T06:09:18.305Z,5.43
2023-03-06T06:14:22.055Z,5.38
2023-03-06T06:19:24.175Z,5.39
2023-03-06T06:24:26.721Z,5.37
2023-03-06T06:29:30.504Z,5.39
2023-03-06T06:34:32.610Z,5.34
2023-03-06T06:39:34.670Z,5.36
2023-03-06T06:44:37.259Z,5.33
2023-03-06T06:49:39.709Z,5.43
2023-03-06T06:54:41.809Z,5.28
2023-03-06T06:59:46.222Z,5.42
2023-03-06T07:05:02.356Z,5.42
2023-03-06T07:10:08.977Z,5.33
2023-03-06T07:15:13.544Z,5.49
2023-03-06T07:20:15.947Z,5.56
2023-03-06T07:25:17.936Z,5.39
2023-03-06T07:30:20.242Z,5.58
2023-03-06T07:35:22.860Z,5.53
2023-03-06T07:40:25.918Z,5.62
2023-03-06T07:45:27.955Z,5.63
2023-03-06T07:50:30.105Z,5.67
2023-03-06T07:55:32.006Z,5.74
2023-03-06T08:00:34.422Z,5.77
2023-03-06T08:05:36.334Z,5.83
2023-03-06T08:10:38.561Z,5.77
2023-03-06T08:15:40.660Z,5.91
2023-03-06T08:20:42.956Z,6.02
2023-03-06T08:25:44.980Z,6.23
2023-03-06T08:30:46.992Z,6.42
2023-03-06T08:35:49.258Z,6.62
2023-03-06T08:40:51.475Z,6.81
2023-03-06T08:45:56.229Z,6.93
2023-03-06T08:50:58.816Z,6.97
2023-03-06T08:56:00.718Z,7.03
2023-03-06T09:01:05.508Z,7.11
2023-03-06T09:06:07.840Z,7.21
2023-03-06T09:11:11.558Z,7.23
2023-03-06T09:16:13.747Z,7.21
2023-03-06T09:21:15.865Z,7.39
2023-03-06T09:26:18.828Z,7.78
2023-03-06T09:31:21.108Z,7.94
2023-03-06T09:36:23.580Z,8.12
2023-03-06T09:41:35.061Z,8.51
2023-03-06T09:46:47.672Z,9.20
2023-03-06T09:52:08.424Z,9.67
2023-03-06T09:57:19.794Z,11.07
2023-03-06T10:02:30.546Z,11.53
2023-03-06T10:07:54.545Z,12.16
2023-03-06T10:13:05.994Z,12.60
2023-03-06T10:18:10.814Z,13.40
2023-03-06T10:23:22.328Z,13.56
2023-03-06T10:28:35.055Z,13.95
2023-03-06T10:33:57.902Z,14.10
2023-03-06T10:39:00.268Z,14.10
2023-03-06T10:44:05.481Z,14.52
2023-03-06T10:49:32.441Z,14.62
2023-03-06T10:54:37.903Z,14.92
2023-03-06T10:59:53.730Z,14.86
2023-03-06T11:04:56.630Z,15.12
2023-03-06T11:09:58.662Z,14.78
2023-03-06T11:15:06.732Z,14.99
2023-03-06T11:20:22.986Z,14.26
2023-03-06T11:25:33.639Z,13.62
2023-03-06T11:30:39.972Z,14.63
2023-03-06T11:36:16.048Z,14.65
2023-03-06T11:41:42.784Z,14.11
2023-03-06T11:46:48.971Z,14.02
2023-03-06T11:51:57.057Z,13.72
2023-03-06T11:57:31.023Z,13.71
2023-03-06T12:02:57.387Z,13.63
2023-03-06T12:08:17.650Z,13.59
2023-03-06T12:13:28.712Z,13.32
2023-03-06T12:19:04.761Z,13.33
2023-03-06T12:24:44.696Z,13.39
2023-03-06T12:30:25.236Z,13.29
2023-03-06T12:35:51.477Z,13.53
2023-03-06T12:40:59.321Z,13.47
2023-03-06T12:46:22.589Z,13.59
2023-03-06T12:51:24.798Z,13.80
2023-03-06T12:56:27.867Z,13.81
2023-03-06T13:01:52.230Z,13.94
2023-03-06T13:07:28.772Z,14.10
2023-03-06T13:13:26.043Z,13.86
2023-03-06T13:19:11.637Z,13.48
2023-03-06T13:24:27.776Z,13.25
2023-03-06T13:29:50.173Z,13.28
2023-03-06T13:34:52.440Z,13.34
2023-03-06T13:39:54.479Z,13.35
2023-03-06T13:45:16.116Z,13.41
2023-03-06T13:50:30.671Z,13.28
2023-03-06T13:55:43.258Z,13.51
2023-03-06T14:01:00.722Z,13.44
2023-03-06T14:06:43.488Z,13.52
2023-03-06T14:12:29.670Z,13.45
2023-03-06T14:17:38.014Z,13.45
2023-03-06T14:22:40.432Z,13.60
2023-03-06T14:27:53.549Z,13.76
2023-03-06T14:32:57.481Z,13.76
2023-03-06T14:38:02.104Z,13.92
2023-03-06T14:43:33.096Z,13.72
2023-03-06T14:48:43.356Z,13.72
2023-03-06T14:53:48.352Z,13.76
2023-03-06T14:58:53.071Z,13.85
2023-03-06T15:03:59.001Z,13.55
2023-03-06T15:09:20.579Z,13.26
2023-03-06T15:14:30.039Z,13.31
2023-03-06T15:19:40.454Z,13.68
2023-03-06T15:24:42.419Z,13.88
2023-03-06T15:29:44.517Z,13.73
2023-03-06T15:35:27.675Z,13.66
2023-03-06T15:40:31.979Z,13.40
2023-03-06T15:45:35.175Z,13.29
2023-03-06T15:50:37.191Z,13.42
2023-03-06T15:55:40.321Z,13.46
2023-03-06T16:00:42.631Z,13.33
2023-03-06T16:05:45.139Z,13.21
2023-03-06T16:10:48.070Z,13.10
2023-03-06T16:15:50.913Z,12.95
2023-03-06T16:20:55.466Z,12.95
2023-03-06T16:25:57.465Z,12.85
2023-03-06T16:30:59.429Z,12.82
2023-03-06T16:36:02.832Z,12.68
2023-03-06T16:41:05.120Z,12.66
2023-03-06T16:46:15.750Z,12.58
2023-03-06T16:51:22.199Z,12.47
2023-03-06T16:56:25.678Z,12.44
2023-03-06T17:01:27.802Z,12.47
2023-03-06T17:06:30.395Z,12.35
2023-03-06T17:11:32.372Z,12.32
2023-03-06T17:16:34.847Z,12.38
2023-03-06T17:21:38.618Z,12.11
2023-03-06T17:26:40.636Z,12.04
2023-03-06T17:31:42.685Z,12.02
2023-03-06T17:36:44.858Z,11.91
2023-03-06T17:41:46.836Z,12.01
2023-03-06T17:46:50.033Z,11.97
2023-03-06T17:51:52.947Z,11.84
2023-03-06T17:57:01.147Z,11.79
2023-03-06T18:02:03.450Z,11.79
2023-03-06T18:07:11.290Z,11.72
2023-03-06T18:12:14.768Z,11.63
2023-03-06T18:17:16.886Z,11.60
2023-03-06T18:22:18.839Z,11.58
2023-03-06T18:27:22.002Z,11.45
2023-03-06T18:32:24.157Z,11.44
2023-03-06T18:37:26.281Z,11.47
2023-03-06T18:42:28.322Z,11.38
2023-03-06T18:47:30.493Z,11.34
2023-03-06T18:52:34.445Z,11.32
2023-03-06T18:57:36.641Z,11.23
2023-03-06T19:02:38.643Z,11.20
2023-03-06T19:07:40.697Z,11.13
2023-03-06T19:12:42.745Z,10.98
2023-03-06T19:17:45.702Z,11.03
2023-03-06T19:22:47.676Z,11.06
2023-03-06T19:27:51.738Z,11.01
2023-03-06T19:32:53.979Z,11.00
2023-03-06T19:37:56.372Z,10.89
2023-03-06T19:42:58.545Z,10.86
2023-03-06T19:48:01.176Z,10.88
2023-03-06T19:53:04.730Z,10.80
2023-03-06T19:58:08.211Z,10.87
2023-03-06T20:03:10.369Z,10.74
2023-03-06T20:08:12.386Z,10.74
2023-03-06T20:13:14.425Z,10.77
2023-03-06T20:18:16.601Z,10.73
2023-03-06T20:23:18.658Z,10.72
2023-03-06T20:28:21.789Z,10.69
2023-03-06T20:33:24.058Z,10.75
2023-03-06T20:38:26.451Z,10.67
2023-03-06T20:43:28.685Z,10.73
2023-03-06T20:48:30.864Z,10.73
2023-03-06T20:53:35.331Z,10.71
2023-03-06T20:58:37.413Z,10.67
2023-03-06T21:03:39.371Z,10.69
2023-03-06T21:08:41.820Z,10.69
2023-03-06T21:13:44.228Z,10.69
2023-03-06T21:18:46.676Z,10.64
2023-03-06T21:23:49.489Z,10.55
2023-03-06T21:28:52.872Z,10.57
2023-03-06T21:33:55.723Z,10.57
2023-03-06T21:38:58.326Z,10.56
2023-03-06T21:44:02.687Z,10.49
2023-03-06T21:49:05.181Z,10.48
2023-03-06T21:54:07.570Z,10.33
2023-03-06T21:59:10.692Z,10.45
2023-03-06T22:04:13.336Z,10.44
2023-03-06T22:09:17.385Z,10.38
2023-03-06T22:14:24.686Z,10.35
2023-03-06T22:19:28.197Z,10.32
2023-03-06T22:24:32.089Z,10.20
2023-03-06T22:29:34.455Z,10.24
2023-03-06T22:34:36.588Z,10.21
2023-03-06T22:39:38.840Z,10.13
2023-03-06T22:44:41.135Z,10.02
2023-03-06T22:49:43.250Z,10.06
2023-03-06T22:54:45.706Z,10.03
2023-03-06T22:59:47.634Z,9.94
2023-03-06T23:04:54.468Z,9.90
2023-03-06T23:09:56.664Z,9.70
2023-03-06T23:15:17.231Z,9.84
2023-03-06T23:20:42.647Z,9.78
2023-03-06T23:26:04.219Z,9.77
2023-03-06T23:31:08.501Z,9.76
2023-03-06T23:36:13.244Z,9.75
2023-03-06T23:41:18.246Z,9.64
2023-03-06T23:46:20.477Z,9.72
2023-03-06T23:51:24.447Z,9.67
2023-03-06T23:56:28.380Z,9.63
